Time;durP1;ratioP1;P1;durP2;ratioP2;P2;SDS_P1;SDS_P2;PMS_P1;PMS_P2;Temp;Humidity;BMP_temperature;BMP_pressure;BME280_temperature;BME280_humidity;BME280_pressure;Samples;Min_cycle;Max_cycle;Signal;HPM_P1;HPM_P2
2022/12/10 00:01:32;;;;;;;70.50;21.42;;;-1.30;99.90;;;;;;5112324;28;20044;-74
2022/12/10 00:03:59;;;;;;;64.10;20.15;;;-1.30;99.90;;;;;;5113426;28;20450;-74
2022/12/10 00:06:27;;;;;;;74.35;22.98;;;-1.20;99.90;;;;;;5113432;28;20044;-73
2022/12/10 00:08:53;;;;;;;71.72;21.10;;;-1.20;99.90;;;;;;5095259;28;20048;-73
2022/12/10 00:11:21;;;;;;;71.97;20.90;;;-1.20;99.90;;;;;;5133749;27;20063;-74
2022/12/10 00:13:48;;;;;;;69.28;21.13;;;-1.20;99.90;;;;;;5115626;28;20061;-73
2022/12/10 00:16:16;;;;;;;71.80;22.67;;;-1.20;99.90;;;;;;5115711;27;20047;-73
2022/12/10 00:18:42;;;;;;;68.38;20.95;;;-1.20;99.90;;;;;;5115266;27;20043;-75
2022/12/10 00:21:11;;;;;;;72.38;21.45;;;-1.10;99.90;;;;;;5133301;27;20523;-74
2022/12/10 00:23:37;;;;;;;72.38;21.80;;;-1.10;99.90;;;;;;5115507;27;20114;-74
2022/12/10 00:26:05;;;;;;;72.45;21.85;;;-1.20;99.90;;;;;;5099059;28;20051;-74
2022/12/10 00:28:32;;;;;;;;;;;-1.20;99.90;;;;;;5133932;27;20051;-73
2022/12/10 00:31:08;;;;;;;;;;;-1.20;99.90;;;;;;5134445;27;20006;-73
2022/12/10 00:33:34;;;;;;;68.25;20.13;;;-1.30;99.90;;;;;;5133509;27;19927;-77
2022/12/10 00:36:16;;;;;;;68.68;20.52;;;-1.30;99.90;;;;;;5115338;28;20149;-74
2022/12/10 00:38:43;;;;;;;77.47;22.77;;;-1.40;99.90;;;;;;5133889;27;20062;-75
2022/12/10 00:41:10;;;;;;;68.18;20.83;;;-1.40;99.90;;;;;;5133276;28;20043;-75
2022/12/10 00:43:35;;;;;;;70.35;20.67;;;-1.50;99.90;;;;;;5115067;28;20479;-75
2022/12/10 00:46:02;;;;;;;81.13;23.02;;;-1.60;99.90;;;;;;5115526;28;20072;-75
2022/12/10 00:48:27;;;;;;;70.97;21.58;;;-1.70;99.90;;;;;;5098396;28;20062;-74
2022/12/10 00:51:14;;;;;;;72.82;22.60;;;-1.70;99.90;;;;;;5133472;28;20487;-73
2022/12/10 00:53:42;;;;;;;64.57;20.02;;;-1.80;99.90;;;;;;5133333;27;20039;-73
2022/12/10 00:56:09;;;;;;;82.22;23.55;;;-1.80;99.90;;;;;;5136830;27;20100;-73
2022/12/10 00:58:35;;;;;;;;;;;-1.90;99.90;;;;;;5138500;27;20047;-73
2022/12/10 01:01:13;;;;;;;73.38;20.25;;;-1.90;99.90;;;;;;5137613;27;20014;-73
2022/12/10 01:03:39;;;;;;;77.78;23.00;;;-2.00;99.90;;;;;;5137449;27;20502;-75
2022/12/10 01:06:10;;;;;;;82.00;21.75;;;-1.90;99.90;;;;;;5137533;27;20092;-75
2022/12/10 01:08:38;;;;;;;79.47;22.50;;;-2.00;99.90;;;;;;5137336;27;20126;-74
2022/12/10 01:11:04;;;;;;;;;;;-2.00;99.90;;;;;;5119560;27;20052;-73
2022/12/10 01:13:29;;;;;;;68.47;20.25;;;-2.10;99.90;;;;;;5137462;27;20064;-74
2022/12/10 01:15:55;;;;;;;80.05;22.20;;;-2.10;99.90;;;;;;5138419;27;20043;-74
2022/12/10 01:18:21;;;;;;;81.13;22.98;;;-2.10;99.90;;;;;;5139663;27;20035;-74
2022/12/10 01:20:46;;;;;;;77.47;21.35;;;-2.20;99.90;;;;;;5120876;27;20050;-76
2022/12/10 01:23:12;;;;;;;68.20;22.10;;;-2.20;99.90;;;;;;5121321;27;20042;-75
2022/12/10 01:25:38;;;;;;;77.90;23.02;;;-2.20;99.90;;;;;;5104414;27;20374;-74
2022/12/10 01:28:03;;;;;;;74.75;22.75;;;-2.20;99.90;;;;;;5140403;27;20186;-74
2022/12/10 01:30:29;;;;;;;78.47;21.98;;;-2.30;99.90;;;;;;5120037;27;20387;-75
2022/12/10 01:32:55;;;;;;;78.07;21.90;;;-2.30;99.90;;;;;;5102475;27;20129;-75
2022/12/10 01:35:20;;;;;;;90.22;23.30;;;-2.30;99.90;;;;;;5118400;27;20145;-74
2022/12/10 01:37:46;;;;;;;76.82;23.08;;;-2.30;99.90;;;;;;5137259;27;20367;-74
2022/12/10 01:40:12;;;;;;;72.85;21.50;;;-2.50;99.90;;;;;;5118936;27;20055;-74
2022/12/10 01:42:37;;;;;;;75.30;22.83;;;-2.40;99.90;;;;;;5118785;27;20051;-75
2022/12/10 01:45:07;;;;;;;78.95;22.20;;;-2.40;99.90;;;;;;5118319;27;20522;-74
2022/12/10 01:47:33;;;;;;;78.57;23.00;;;-2.40;99.90;;;;;;5136591;27;20039;-73
2022/12/10 01:50:00;;;;;;;79.80;21.67;;;-2.40;99.90;;;;;;5101109;27;20429;-74
2022/12/10 01:52:26;;;;;;;76.65;22.15;;;-2.40;99.90;;;;;;5136513;27;20511;-74
2022/12/10 01:54:52;;;;;;;78.30;22.75;;;-2.50;99.90;;;;;;5101442;27;20039;-75
2022/12/10 01:57:22;;;;;;;82.63;22.70;;;-2.50;99.90;;;;;;5136359;27;20084;-75
2022/12/10 01:59:53;;;;;;;78.88;22.25;;;-2.50;99.90;;;;;;5118297;27;20050;-74
2022/12/10 02:02:40;;;;;;;75.38;21.17;;;-2.50;99.90;;;;;;5118847;27;20043;-75
2022/12/10 02:05:12;;;;;;;79.95;21.73;;;-2.50;99.90;;;;;;5136919;27;20074;-76
2022/12/10 02:07:55;;;;;;;77.80;22.52;;;-2.50;99.90;;;;;;5135876;27;20043;-74
2022/12/10 02:11:13;;;;;;;71.22;22.85;;;-2.50;99.90;;;;;;5135628;27;20108;-75
2022/12/10 02:13:43;;;;;;;74.38;22.65;;;-2.40;99.90;;;;;;5071963;28;20058;-73
2022/12/10 02:16:19;;;;;;;77.32;22.83;;;-2.40;99.90;;;;;;5116799;28;20061;-74
2022/12/10 02:19:00;;;;;;;89.50;22.65;;;-2.40;99.90;;;;;;5117159;28;20134;-74
2022/12/10 02:21:35;;;;;;;78.68;22.20;;;-2.40;99.90;;;;;;5135056;28;20050;-75
2022/12/10 02:24:06;;;;;;;79.15;22.80;;;-2.40;99.90;;;;;;5116589;28;20471;-73
2022/12/10 02:26:59;;;;;;;79.07;23.27;;;-2.30;99.90;;;;;;5099745;28;20051;-73
2022/12/10 02:29:28;;;;;;;82.57;22.92;;;-2.40;99.90;;;;;;5134823;28;20051;-73
2022/12/10 02:31:59;;;;;;;84.45;23.00;;;-2.30;99.90;;;;;;5134681;28;20047;-73
2022/12/10 02:34:30;;;;;;;79.03;21.98;;;-2.40;99.90;;;;;;5134948;28;20058;-73
2022/12/10 02:37:00;;;;;;;84.28;23.42;;;-2.40;99.90;;;;;;5134956;28;20176;-74
2022/12/10 02:39:30;;;;;;;82.57;23.52;;;-2.30;99.90;;;;;;5116212;28;20050;-73
2022/12/10 02:41:59;;;;;;;78.93;23.85;;;-2.40;99.90;;;;;;5116891;28;20051;-74
2022/12/10 02:44:27;;;;;;;85.78;23.95;;;-2.40;99.90;;;;;;5134241;28;20080;-74
2022/12/10 02:46:56;;;;;;;90.85;24.83;;;-2.40;99.90;;;;;;5116208;28;20108;-74
2022/12/10 02:49:23;;;;;;;86.22;23.73;;;-2.40;99.90;;;;;;5116210;28;20368;-75
2022/12/10 02:51:49;;;;;;;;;;;-2.40;99.90;;;;;;5134628;28;20055;-75
2022/12/10 02:54:35;;;;;;;80.40;22.52;;;-2.50;99.90;;;;;;5134337;28;19919;-74
2022/12/10 02:57:22;;;;;;;83.55;22.75;;;-2.50;99.90;;;;;;5134595;28;20347;-74
2022/12/10 02:59:55;;;;;;;75.47;21.65;;;-2.50;99.90;;;;;;5134360;28;20475;-74
2022/12/10 03:02:50;;;;;;;84.30;24.08;;;-2.50;99.90;;;;;;5134162;28;20057;-79
2022/12/10 03:05:27;;;;;;;85.38;24.85;;;-2.50;99.90;;;;;;5116266;28;20471;-75
2022/12/10 03:08:05;;;;;;;;;;;-2.50;99.90;;;;;;5099744;28;20081;-74
2022/12/10 03:10:53;;;;;;;79.53;22.25;;;-2.60;99.90;;;;;;5094241;27;1136913;-74
2022/12/10 03:13:26;;;;;;;83.60;23.65;;;-2.60;99.90;;;;;;5099859;27;20494;-74
2022/12/10 03:15:54;;;;;;;89.43;24.55;;;-2.50;99.90;;;;;;5135108;27;20051;-74
2022/12/10 03:18:23;;;;;;;90.50;25.15;;;-2.50;99.90;;;;;;5098635;27;20523;-74
2022/12/10 03:20:52;;;;;;;90.90;24.58;;;-2.50;99.90;;;;;;5134915;27;20127;-73
2022/12/10 03:23:19;;;;;;;86.82;24.63;;;-2.60;99.90;;;;;;5116392;27;20063;-73
2022/12/10 03:25:48;;;;;;;86.70;25.63;;;-2.50;99.90;;;;;;5116626;27;20062;-74
2022/12/10 03:28:16;;;;;;;91.85;24.17;;;-2.60;99.90;;;;;;5135162;27;20079;-73
2022/12/10 03:30:43;;;;;;;84.03;23.90;;;-2.60;99.90;;;;;;5135054;27;20245;-73
2022/12/10 03:33:09;;;;;;;97.00;25.35;;;-2.60;99.90;;;;;;5116854;27;20098;-75
2022/12/10 03:35:35;;;;;;;91.35;25.38;;;-2.60;99.90;;;;;;5100460;27;20383;-74
2022/12/10 03:38:02;;;;;;;91.80;25.67;;;-2.70;99.90;;;;;;5116733;27;20046;-74
2022/12/10 03:40:28;;;;;;;85.25;24.38;;;-2.70;99.90;;;;;;5135094;27;20047;-74
2022/12/10 03:42:53;;;;;;;87.95;23.70;;;-2.70;99.90;;;;;;5116430;27;20043;-75
2022/12/10 03:45:19;;;;;;;82.45;24.00;;;-2.70;99.90;;;;;;5134523;27;20558;-74
2022/12/10 03:47:45;;;;;;;86.72;23.48;;;-2.80;99.90;;;;;;5134629;27;20425;-74
2022/12/10 03:50:11;;;;;;;80.35;24.05;;;-2.80;99.90;;;;;;5116260;27;20043;-75
2022/12/10 03:52:37;;;;;;;95.50;25.20;;;-2.90;99.90;;;;;;5115779;27;20134;-74
2022/12/10 03:55:03;;;;;;;87.70;23.67;;;-2.80;99.90;;;;;;5115847;27;20050;-73
2022/12/10 03:57:29;;;;;;;87.63;24.73;;;-2.90;99.90;;;;;;5133906;27;20043;-74
2022/12/10 03:59:54;;;;;;;81.45;22.05;;;-3.00;99.90;;;;;;5065501;27;20099;-73
2022/12/10 04:02:20;;;;;;;84.20;23.23;;;-3.00;99.90;;;;;;5116495;27;20424;-73
2022/12/10 04:04:46;;;;;;;82.63;24.38;;;-3.00;99.90;;;;;;5115725;27;20403;-73
2022/12/10 04:07:12;;;;;;;83.60;23.67;;;-3.00;99.90;;;;;;5115941;27;20042;-73
2022/12/10 04:09:38;;;;;;;85.77;23.37;;;-3.00;99.90;;;;;;5098552;27;20055;-73
2022/12/10 04:12:04;;;;;;;86.50;23.23;;;-3.00;99.90;;;;;;5133822;27;20070;-73
2022/12/10 04:17:14;;;;;;;81.88;24.25;;;-3.00;99.90;;;;;;5134057;27;20040;-73
2022/12/10 04:19:40;;;;;;;81.05;22.20;;;-3.10;99.90;;;;;;5133709;27;20376;-75
2022/12/10 04:27:54;;;;;;;88.20;22.67;;;-3.10;99.90;;;;;;5070023;28;20052;-73
2022/12/10 04:30:19;;;;;;;83.75;22.20;;;-3.10;99.90;;;;;;5053764;28;20053;-73
2022/12/10 04:32:45;;;;;;;81.43;23.27;;;-3.10;99.90;;;;;;5082343;27;20143;-73
2022/12/10 04:35:11;;;;;;;84.40;23.38;;;-3.00;99.90;;;;;;5133752;27;20047;-72
2022/12/10 04:37:37;;;;;;;89.30;23.38;;;-3.00;99.90;;;;;;5115337;28;20047;-73
2022/12/10 04:40:03;;;;;;;82.63;22.60;;;-3.10;99.90;;;;;;5098669;28;20047;-73
2022/12/10 04:42:29;;;;;;;74.67;22.00;;;-3.00;99.90;;;;;;5115404;28;20058;-74
2022/12/10 04:44:54;;;;;;;78.97;23.90;;;-3.10;99.90;;;;;;5115330;28;20043;-73
2022/12/10 04:47:20;;;;;;;91.63;23.92;;;-3.10;99.90;;;;;;5115306;28;20199;-74
2022/12/10 04:49:46;;;;;;;80.95;23.25;;;-3.10;99.90;;;;;;5133422;28;20134;-74
2022/12/10 04:52:14;;;;;;;88.07;22.95;;;-3.10;99.90;;;;;;5133540;28;20117;-74
2022/12/10 04:54:41;;;;;;;84.53;24.17;;;-3.10;99.90;;;;;;5115401;28;20101;-73
2022/12/10 04:57:07;;;;;;;83.93;23.50;;;-3.10;99.90;;;;;;5114719;28;20491;-73
2022/12/10 04:59:32;;;;;;;89.10;23.10;;;-3.10;99.90;;;;;;5115169;28;20196;-74
2022/12/10 05:01:58;;;;;;;84.10;22.88;;;-3.10;99.90;;;;;;5098475;28;20153;-73
2022/12/10 05:04:24;;;;;;;90.65;24.98;;;-3.10;99.90;;;;;;5098083;28;20185;-74
2022/12/10 05:06:50;;;;;;;76.47;23.63;;;-3.00;99.90;;;;;;5114485;28;20043;-74
2022/12/10 05:09:16;;;;;;;80.22;23.90;;;-3.10;99.90;;;;;;5081129;27;20078;-74
2022/12/10 05:11:44;;;;;;;84.77;24.13;;;-3.10;99.90;;;;;;5114847;28;20049;-74
2022/12/10 05:14:14;;;;;;;87.63;24.80;;;-3.10;99.90;;;;;;5133765;28;20276;-73
2022/12/10 05:16:39;;;;;;;85.07;24.17;;;-3.20;99.90;;;;;;5115137;28;20447;-75
2022/12/10 05:19:05;;;;;;;86.40;23.17;;;-3.20;99.90;;;;;;5115333;28;20050;-73
2022/12/10 05:24:17;;;;;;;77.22;22.98;;;-3.30;99.90;;;;;;5133175;28;20086;-75
2022/12/10 05:26:43;;;;;;;87.03;24.65;;;-3.20;99.90;;;;;;5133658;28;20449;-74
2022/12/10 05:29:10;;;;;;;82.82;23.08;;;-3.20;99.90;;;;;;5115064;28;20043;-74
2022/12/10 05:31:36;;;;;;;93.70;26.38;;;-3.20;99.90;;;;;;5114745;28;20096;-74
2022/12/10 05:34:01;;;;;;;76.85;22.33;;;-3.20;99.90;;;;;;5115066;28;20126;-75
2022/12/10 05:36:31;;;;;;;86.75;22.95;;;-3.20;99.90;;;;;;5133143;28;20420;-73
2022/12/10 05:38:58;;;;;;;84.00;23.42;;;-3.30;99.90;;;;;;5114858;28;20047;-72
2022/12/10 05:41:29;;;;;;;80.32;22.90;;;-3.20;99.90;;;;;;5134704;27;20043;-74
2022/12/10 05:43:57;;;;;;;84.20;24.17;;;-3.20;99.90;;;;;;5136361;27;20550;-72
2022/12/10 05:46:25;;;;;;;94.50;24.15;;;-3.30;99.90;;;;;;5136660;27;20050;-74
2022/12/10 05:48:51;;;;;;;84.70;23.20;;;-3.30;99.90;;;;;;5136530;27;20054;-73
2022/12/10 05:51:23;;;;;;;79.03;23.90;;;-3.30;99.90;;;;;;5118234;27;20074;-73
2022/12/10 05:53:51;;;;;;;84.80;22.85;;;-3.30;99.90;;;;;;5137120;27;20085;-73
2022/12/10 05:56:20;;;;;;;87.00;23.05;;;-3.40;99.90;;;;;;5136821;27;20047;-73
2022/12/10 05:58:48;;;;;;;85.30;24.35;;;-3.40;99.90;;;;;;5117997;27;20080;-73
2022/12/10 06:01:19;;;;;;;80.55;23.83;;;-3.40;99.90;;;;;;5136542;27;20047;-73
2022/12/10 06:03:45;;;;;;;87.18;23.42;;;-3.40;99.90;;;;;;5118952;27;20051;-73
2022/12/10 06:06:12;;;;;;;85.25;23.98;;;-3.50;99.90;;;;;;5125073;27;20047;-75
2022/12/10 06:08:37;;;;;;;87.18;23.70;;;-3.50;99.90;;;;;;5109464;27;20043;-74
2022/12/10 06:11:05;;;;;;;89.82;24.05;;;-3.40;99.90;;;;;;5142674;27;20054;-73
2022/12/10 06:13:31;;;;;;;74.60;22.33;;;-3.40;99.90;;;;;;5120816;27;20098;-73
2022/12/10 06:15:57;;;;;;;89.75;23.92;;;-3.40;99.90;;;;;;5139591;27;20063;-74
2022/12/10 06:18:22;;;;;;;88.63;23.77;;;-3.30;99.90;;;;;;5121059;27;20046;-75
2022/12/10 06:20:48;;;;;;;86.70;24.70;;;-3.20;99.90;;;;;;5137940;27;20437;-73
2022/12/10 06:23:14;;;;;;;80.68;23.73;;;-3.10;99.90;;;;;;5118802;27;20058;-73
2022/12/10 06:25:40;;;;;;;92.32;24.80;;;-3.00;99.90;;;;;;5136335;27;20047;-73
2022/12/10 06:28:07;;;;;;;95.70;24.33;;;-2.90;99.90;;;;;;5136462;27;20126;-72
2022/12/10 06:30:33;;;;;;;89.35;25.42;;;-2.80;99.90;;;;;;5117814;27;20120;-72
2022/12/10 06:32:59;;;;;;;91.93;25.65;;;-2.70;99.90;;;;;;5101474;27;20047;-73
2022/12/10 06:35:24;;;;;;;93.78;24.17;;;-2.60;99.90;;;;;;5136101;27;20364;-73
2022/12/10 06:37:50;;;;;;;91.53;22.88;;;-2.60;99.90;;;;;;5135418;27;20068;-73
2022/12/10 06:40:17;;;;;;;89.80;25.25;;;-2.60;99.90;;;;;;5135760;27;20386;-72
2022/12/10 06:42:42;;;;;;;93.72;25.85;;;-2.50;99.90;;;;;;5135722;27;20047;-72
2022/12/10 06:45:09;;;;;;;92.57;25.77;;;-2.40;99.90;;;;;;5117231;27;20047;-73
2022/12/10 06:47:34;;;;;;;87.75;24.38;;;-2.40;99.90;;;;;;5117935;27;20050;-74
2022/12/10 06:50:00;;;;;;;84.20;24.48;;;-2.40;99.90;;;;;;5136099;27;20051;-72
2022/12/10 06:52:26;;;;;;;94.72;24.98;;;-2.30;99.90;;;;;;5098972;27;20044;-72
2022/12/10 06:54:53;;;;;;;95.40;25.75;;;-2.30;99.90;;;;;;5100097;27;20051;-73
2022/12/10 06:57:19;;;;;;;92.70;26.80;;;-2.30;99.90;;;;;;5135403;27;20391;-72
2022/12/10 06:59:45;;;;;;;90.22;26.08;;;-2.20;99.90;;;;;;5116921;27;20057;-72
2022/12/10 07:02:10;;;;;;;93.80;27.10;;;-2.30;99.90;;;;;;5116762;27;20043;-73
2022/12/10 07:04:36;;;;;;;86.43;24.88;;;-2.30;99.90;;;;;;5135234;27;20043;-73
2022/12/10 07:07:02;;;;;;;91.55;24.92;;;-2.40;99.90;;;;;;5135442;27;20043;-73
2022/12/10 07:09:28;;;;;;;101.18;25.17;;;-2.40;99.90;;;;;;5099466;27;20050;-74
2022/12/10 07:11:53;;;;;;;94.00;25.27;;;-2.60;99.90;;;;;;5134918;27;20079;-74
2022/12/10 07:14:19;;;;;;;90.25;26.70;;;-2.60;99.90;;;;;;5134972;27;20062;-74
2022/12/10 07:16:45;;;;;;;90.88;24.85;;;-2.70;99.90;;;;;;5134748;27;20122;-73
2022/12/10 07:19:12;;;;;;;93.28;26.83;;;-2.70;99.90;;;;;;5134858;27;20043;-73
2022/12/10 07:21:40;;;;;;;87.65;26.92;;;-2.70;99.90;;;;;;5117217;27;20080;-74
2022/12/10 07:24:11;;;;;;;98.00;27.08;;;-2.70;99.90;;;;;;5135072;27;20095;-73
2022/12/10 07:26:43;;;;;;;99.10;26.95;;;-2.70;99.90;;;;;;5135496;27;20417;-74
2022/12/10 07:29:13;;;;;;;92.30;26.45;;;-2.70;99.90;;;;;;5100597;27;20039;-75
2022/12/10 07:31:39;;;;;;;93.28;25.88;;;-2.70;99.90;;;;;;5116073;27;20098;-75
2022/12/10 07:34:05;;;;;;;101.28;27.55;;;-2.70;99.90;;;;;;5134497;27;20083;-74
2022/12/10 07:36:30;;;;;;;97.47;27.15;;;-2.60;99.90;;;;;;5116488;27;20130;-74
2022/12/10 07:38:56;;;;;;;86.93;26.10;;;-2.50;99.90;;;;;;5115944;27;20039;-73
2022/12/10 07:41:23;;;;;;;98.38;26.75;;;-2.40;99.90;;;;;;5115968;27;20042;-77
2022/12/10 07:43:49;;;;;;;93.63;25.95;;;-2.40;99.90;;;;;;5098996;27;20158;-73
2022/12/10 07:46:22;;;;;;;88.65;26.20;;;-2.40;99.90;;;;;;5134017;27;20043;-74
2022/12/10 07:48:48;;;;;;;92.65;25.88;;;-2.40;99.90;;;;;;5115949;27;20047;-72
2022/12/10 07:51:15;;;;;;;94.37;26.97;;;-2.30;99.90;;;;;;5115879;27;20046;-73
2022/12/10 07:53:42;;;;;;;94.95;26.73;;;-2.20;99.90;;;;;;5134255;27;20295;-74
2022/12/10 07:56:09;;;;;;;97.80;27.52;;;-2.30;99.90;;;;;;5134126;27;20039;-73
2022/12/10 07:58:35;;;;;;;99.10;26.02;;;-2.30;99.90;;;;;;5134200;27;20035;-73
2022/12/10 08:01:11;;;;;;;86.30;24.88;;;-2.30;99.90;;;;;;5098855;27;20099;-74
2022/12/10 08:03:37;;;;;;;93.40;26.45;;;-2.30;99.90;;;;;;5133856;27;20039;-73
2022/12/10 08:06:10;;;;;;;84.70;26.20;;;-2.40;99.90;;;;;;5115762;27;20095;-73
2022/12/10 08:08:37;;;;;;;87.15;24.25;;;-2.40;99.90;;;;;;5115701;27;20043;-73
2022/12/10 08:11:04;;;;;;;85.97;27.30;;;-2.40;99.90;;;;;;5115081;27;20051;-73
2022/12/10 08:13:30;;;;;;;98.88;27.10;;;-2.40;99.90;;;;;;5115572;27;20051;-73
2022/12/10 08:16:16;;;;;;;98.32;26.75;;;-2.50;99.90;;;;;;5115612;27;20035;-73
2022/12/10 08:18:43;;;;;;;89.63;25.27;;;-2.50;99.90;;;;;;5115815;27;20485;-73
2022/12/10 08:21:18;;;;;;;95.95;27.25;;;-2.50;99.90;;;;;;5115435;27;20088;-73
2022/12/10 08:23:44;;;;;;;88.13;25.38;;;-2.50;99.90;;;;;;5134008;27;20046;-73
2022/12/10 08:26:19;;;;;;;97.55;27.63;;;-2.50;99.90;;;;;;5133873;27;20039;-71
2022/12/10 08:28:46;;;;;;;96.95;27.27;;;-2.60;99.90;;;;;;5133931;27;20083;-74
2022/12/10 08:31:13;;;;;;;95.95;26.25;;;-2.50;99.90;;;;;;5134240;27;20047;-73
2022/12/10 08:33:40;;;;;;;90.75;27.20;;;-2.60;99.90;;;;;;5133939;27;20051;-72
2022/12/10 08:36:08;;;;;;;83.63;24.80;;;-2.50;99.90;;;;;;5115243;27;20478;-72
2022/12/10 08:38:34;;;;;;;91.57;26.25;;;-2.50;99.90;;;;;;5114666;28;20050;-73
2022/12/10 08:41:06;;;;;;;92.47;27.63;;;-2.50;99.90;;;;;;5133490;27;20086;-73
2022/12/10 08:43:32;;;;;;;99.32;28.00;;;-2.40;99.90;;;;;;5116004;28;20115;-74
2022/12/10 08:45:58;;;;;;;99.53;27.70;;;-2.30;99.90;;;;;;5114984;28;20487;-75
2022/12/10 08:48:24;;;;;;;94.63;27.92;;;-2.20;99.90;;;;;;5114591;28;20075;-75
2022/12/10 08:50:50;;;;;;;112.72;29.10;;;-2.10;99.90;;;;;;5098300;28;20055;-72
2022/12/10 08:53:16;;;;;;;105.70;28.13;;;-2.00;99.90;;;;;;5114982;28;20047;-72
2022/12/10 08:55:41;;;;;;;108.05;30.67;;;-1.90;99.90;;;;;;5133352;28;20443;-73
2022/12/10 08:58:09;;;;;;;93.72;27.45;;;-1.80;99.90;;;;;;5114790;28;20043;-73
2022/12/10 09:00:35;;;;;;;;;;;-1.70;99.90;;;;;;5133479;28;20495;-72
2022/12/10 09:03:00;;;;;;;100.50;29.45;;;-1.70;99.90;;;;;;5133249;28;19925;-72
2022/12/10 09:05:26;;;;;;;103.20;30.45;;;-1.60;99.90;;;;;;5098125;28;20039;-72
2022/12/10 09:07:52;;;;;;;98.18;29.50;;;-1.60;99.90;;;;;;5080818;28;20043;-73
2022/12/10 09:10:18;;;;;;;98.65;27.83;;;-1.50;99.90;;;;;;5133132;28;20043;-73
2022/12/10 09:12:43;;;;;;;101.20;29.98;;;-1.50;99.90;;;;;;5116003;28;20046;-72
2022/12/10 09:15:10;;;;;;;104.85;27.83;;;-1.50;99.90;;;;;;5114674;28;20047;-73
2022/12/10 09:17:38;;;;;;;99.95;27.83;;;-1.40;99.90;;;;;;5120330;27;20039;-74
2022/12/10 09:20:04;;;;;;;95.97;27.52;;;-1.40;99.90;;;;;;5121662;27;20174;-74
2022/12/10 09:22:30;;;;;;;100.55;28.02;;;-1.30;99.90;;;;;;5123010;27;20090;-73
2022/12/10 09:24:56;;;;;;;92.80;28.52;;;-1.40;99.90;;;;;;5138579;27;20043;-74
2022/12/10 09:27:21;;;;;;;93.90;28.38;;;-1.40;99.90;;;;;;5119858;27;20055;-73
2022/12/10 09:29:47;;;;;;;97.35;27.90;;;-1.40;99.90;;;;;;5120576;27;20047;-74
2022/12/10 09:32:13;;;;;;;91.70;26.42;;;-1.30;99.90;;;;;;5138495;27;20043;-74
2022/12/10 09:34:39;;;;;;;105.85;27.50;;;-1.30;99.90;;;;;;5119234;27;20051;-70
2022/12/10 09:37:04;;;;;;;98.43;27.70;;;-1.30;99.90;;;;;;5136619;27;20043;-72
2022/12/10 09:39:30;;;;;;;101.03;26.17;;;-1.20;99.90;;;;;;5136802;27;20432;-70
2022/12/10 09:41:59;;;;;;;102.47;27.58;;;-1.30;99.90;;;;;;5119113;27;20045;-71
2022/12/10 09:44:30;;;;;;;96.97;28.70;;;-1.10;99.90;;;;;;5118655;27;20519;-71
2022/12/10 09:47:03;;;;;;;96.38;27.08;;;-1.20;99.90;;;;;;5136723;27;20039;-70
2022/12/10 09:49:47;;;;;;;105.53;29.13;;;-1.10;99.90;;;;;;5136677;27;20070;-71
2022/12/10 09:52:18;;;;;;;104.47;27.40;;;-1.00;99.90;;;;;;5136699;27;20489;-71
2022/12/10 09:54:48;;;;;;;99.55;29.08;;;-0.90;99.90;;;;;;5136752;27;20518;-74
2022/12/10 09:57:39;;;;;;;103.97;27.60;;;-0.70;99.90;;;;;;5136010;27;20039;-73
2022/12/10 10:00:29;;;;;;;110.53;29.35;;;-0.60;99.90;;;;;;5136507;27;20130;-75
2022/12/10 10:03:01;;;;;;;108.32;27.50;;;-0.70;99.90;;;;;;5118682;27;20043;-74
2022/12/10 10:05:31;;;;;;;102.70;27.55;;;-0.70;99.90;;;;;;5118373;27;20476;-70
2022/12/10 10:08:03;;;;;;;96.85;25.88;;;-0.70;99.90;;;;;;5136367;27;20050;-71
2022/12/10 10:10:33;;;;;;;110.55;28.60;;;-0.70;99.90;;;;;;5117502;27;20051;-72
2022/12/10 10:13:11;;;;;;;99.20;23.13;;;-0.70;99.90;;;;;;5136260;27;20111;-71
2022/12/10 10:15:42;;;;;;;103.20;29.90;;;-0.70;99.90;;;;;;5136519;27;20047;-70
2022/12/10 10:18:33;;;;;;;106.97;27.27;;;-0.70;99.90;;;;;;5135916;27;20039;-70
2022/12/10 10:21:01;;;;;;;99.07;28.13;;;-0.70;99.90;;;;;;5136214;27;20082;-71
2022/12/10 10:23:26;;;;;;;100.55;28.33;;;-0.70;99.90;;;;;;5135601;27;20089;-72
2022/12/10 10:25:52;;;;;;;101.78;26.25;;;-0.60;99.90;;;;;;5135750;27;20074;-71
2022/12/10 10:28:21;;;;;;;103.43;27.40;;;-0.70;99.90;;;;;;5136028;27;20119;-71
2022/12/10 10:30:47;;;;;;;109.50;27.55;;;-0.80;99.90;;;;;;5117666;27;20459;-71
2022/12/10 10:33:15;;;;;;;95.38;25.92;;;-0.70;99.90;;;;;;5136105;27;20039;-74
2022/12/10 10:35:48;;;;;;;102.85;29.63;;;-0.60;99.90;;;;;;5136071;27;20043;-74
2022/12/10 10:38:22;;;;;;;96.28;26.23;;;-0.60;99.90;;;;;;5135896;27;20078;-75
2022/12/10 10:40:59;;;;;;;102.88;26.77;;;-0.60;99.90;;;;;;5136363;27;20043;-74
2022/12/10 10:43:39;;;;;;;100.15;27.05;;;-0.60;99.90;;;;;;5118747;27;20123;-73
2022/12/10 10:46:20;;;;;;;96.43;25.85;;;-0.50;99.90;;;;;;5120834;27;20050;-74
2022/12/10 10:48:46;;;;;;;112.22;28.63;;;-0.40;99.90;;;;;;5124098;27;20126;-74
2022/12/10 10:51:12;;;;;;;105.30;28.58;;;-0.30;99.90;;;;;;5142006;27;20070;-74
2022/12/10 10:53:42;;;;;;;99.53;28.92;;;-0.30;99.90;;;;;;5105483;27;20047;-74
2022/12/10 10:56:41;;;;;;;114.28;29.13;;;-0.40;99.90;;;;;;5141333;27;20047;-73
2022/12/10 10:59:39;;;;;;;95.50;25.20;;;-0.40;99.90;;;;;;5111753;27;20051;-75
2022/12/10 11:02:34;;;;;;;101.93;28.08;;;-0.40;99.90;;;;;;5117177;27;20103;-74
2022/12/10 11:05:07;;;;;;;109.95;30.15;;;-0.40;99.90;;;;;;5135499;27;20047;-74
2022/12/10 11:07:37;;;;;;;102.60;25.73;;;-0.50;99.90;;;;;;5100283;27;20371;-74
2022/12/10 11:10:24;;;;;;;101.13;26.48;;;-0.50;99.90;;;;;;5135295;27;20039;-74
2022/12/10 11:13:06;;;;;;;91.13;24.65;;;-0.50;99.90;;;;;;5100139;27;20058;-78
2022/12/10 11:15:40;;;;;;;103.20;25.92;;;-0.60;99.90;;;;;;5117195;27;20047;-73
2022/12/10 11:18:25;;;;;;;94.72;26.70;;;-0.60;99.90;;;;;;5116576;27;20075;-73
2022/12/10 11:20:58;;;;;;;89.75;24.38;;;-0.50;99.90;;;;;;5135133;27;20047;-72
2022/12/10 11:23:29;;;;;;;97.18;26.25;;;-0.50;99.90;;;;;;5134719;27;20250;-73
2022/12/10 11:26:11;;;;;;;102.72;25.15;;;-0.40;99.90;;;;;;5135103;27;20104;-73
2022/12/10 11:28:55;;;;;;;99.25;25.95;;;-0.40;99.90;;;;;;5117360;27;20481;-73
2022/12/10 11:31:27;;;;;;;94.85;25.17;;;-0.40;99.90;;;;;;5116678;27;20043;-74
2022/12/10 11:34:08;;;;;;;104.07;25.48;;;-0.30;99.90;;;;;;5134806;27;20043;-74
2022/12/10 11:36:50;;;;;;;125.88;31.50;;;-0.30;99.90;;;;;;5117416;27;20050;-75
2022/12/10 11:39:38;;;;;;;111.13;26.75;;;-0.40;99.90;;;;;;5115965;27;20378;-74
2022/12/10 11:42:34;;;;;;;109.47;27.83;;;-0.30;99.90;;;;;;5134781;27;20130;-73
2022/12/10 11:45:18;;;;;;;117.28;27.50;;;-0.30;99.90;;;;;;5135233;27;20051;-74
2022/12/10 11:48:06;;;;;;;108.40;28.88;;;-0.30;99.90;;;;;;5116310;27;20047;-73
2022/12/10 11:50:46;;;;;;;120.18;28.95;;;-0.30;99.90;;;;;;5100189;27;20039;-79
2022/12/10 11:53:14;;;;;;;114.45;28.45;;;-0.40;99.90;;;;;;5134018;27;20455;-74
2022/12/10 11:55:46;;;;;;;118.53;28.92;;;-0.30;99.90;;;;;;5135127;27;20368;-73
2022/12/10 11:58:26;;;;;;;124.90;27.52;;;-0.20;99.90;;;;;;5134248;27;20043;-74
2022/12/10 12:01:10;;;;;;;114.03;30.02;;;-0.30;99.90;;;;;;5135136;27;20039;-74
2022/12/10 12:03:55;;;;;;;134.32;30.88;;;-0.20;99.90;;;;;;5116889;27;20451;-74
2022/12/10 12:06:51;;;;;;;116.80;28.05;;;-0.20;99.90;;;;;;5116083;27;20043;-78
2022/12/10 12:09:45;;;;;;;136.93;33.95;;;-0.10;99.90;;;;;;5116263;27;20093;-75
2022/12/10 12:12:33;;;;;;;128.90;31.50;;;-0.30;99.90;;;;;;5115460;27;20051;-75
2022/12/10 12:15:17;;;;;;;115.15;29.80;;;-0.20;99.90;;;;;;5115649;27;20082;-77
2022/12/10 12:17:59;;;;;;;121.72;29.55;;;-0.20;99.90;;;;;;5116170;27;20047;-74
2022/12/10 12:20:31;;;;;;;132.30;30.75;;;-0.20;99.90;;;;;;5134526;27;20050;-74
2022/12/10 12:23:14;;;;;;;138.73;30.67;;;-0.10;99.90;;;;;;5115732;27;20066;-75
2022/12/10 12:25:55;;;;;;;124.97;29.90;;;0.00;99.90;;;;;;5117934;27;20433;-74
2022/12/10 12:28:31;;;;;;;118.50;29.85;;;0.00;99.90;;;;;;5133646;27;20047;-74
2022/12/10 12:31:13;;;;;;;114.35;29.17;;;0.10;99.90;;;;;;5115857;27;20051;-74
2022/12/10 12:34:22;;;;;;;118.70;30.85;;;0.10;99.90;;;;;;5133703;27;20057;-74
2022/12/10 12:36:48;;;;;;;125.60;29.73;;;0.20;99.90;;;;;;5133974;27;20074;-77
2022/12/10 12:39:47;;;;;;;131.48;31.25;;;0.30;99.90;;;;;;5133343;27;20054;-75
2022/12/10 12:42:29;;;;;;;121.30;30.33;;;0.10;99.90;;;;;;5098720;28;20039;-74
2022/12/10 12:45:02;;;;;;;135.65;31.15;;;0.20;99.90;;;;;;5134310;28;20114;-76
2022/12/10 12:47:49;;;;;;;135.45;32.08;;;0.20;99.90;;;;;;5133733;28;20043;-77
2022/12/10 12:50:52;;;;;;;126.22;31.10;;;0.20;99.90;;;;;;5135743;27;20043;-76
2022/12/10 12:53:20;;;;;;;147.63;33.40;;;0.30;99.90;;;;;;5133617;27;20070;-76
2022/12/10 12:55:55;;;;;;;116.18;29.13;;;0.20;99.90;;;;;;5102790;27;20046;-75
2022/12/10 12:58:36;;;;;;;131.00;33.20;;;0.30;99.90;;;;;;5138423;27;20045;-75